createdAt,value
2018-12-15T00:02:27.273Z,42.37
2018-12-15T00:04:55.927Z,43.87
2018-12-15T00:07:24.749Z,42.10
2018-12-15T00:09:53.131Z,45.27
2018-12-15T00:12:22.099Z,47.27
2018-12-15T00:14:51.954Z,47.63
2018-12-15T00:17:20.575Z,49.40
2018-12-15T00:19:49.013Z,46.30
2018-12-15T00:22:17.412Z,46.00
2018-12-15T00:24:45.787Z,44.90
2018-12-15T00:27:14.153Z,47.60
2018-12-15T00:29:42.547Z,49.90
2018-12-15T00:32:11.162Z,46.40
2018-12-15T00:34:39.542Z,51.63
2018-12-15T00:37:07.918Z,47.30
2018-12-15T00:39:36.862Z,48.43
2018-12-15T00:42:06.109Z,47.10
2018-12-15T00:44:34.825Z,46.17
2018-12-15T00:47:04.097Z,48.97
2018-12-15T00:49:33.536Z,50.10
2018-12-15T00:52:02.851Z,46.77
2018-12-15T00:54:31.548Z,46.57
2018-12-15T00:57:00.256Z,49.63
2018-12-15T00:59:28.882Z,48.77
2018-12-15T01:01:57.645Z,48.60
2018-12-15T01:04:26.034Z,48.10
2018-12-15T01:06:54.841Z,49.43
2018-12-15T01:09:24.472Z,47.50
2018-12-15T01:11:53.056Z,49.70
2018-12-15T01:14:21.413Z,48.20
2018-12-15T01:18:18.990Z,49.37
2018-12-15T01:20:47.367Z,48.47
2018-12-15T01:23:15.766Z,48.53
2018-12-15T01:25:45.221Z,50.53
2018-12-15T01:28:14.626Z,52.03
2018-12-15T01:30:44.012Z,51.73
2018-12-15T01:33:12.428Z,56.30
2018-12-15T01:35:41.595Z,54.13
2018-12-15T01:38:09.966Z,53.00
2018-12-15T01:40:39.216Z,49.50
2018-12-15T01:43:07.593Z,51.77
2018-12-15T01:45:35.992Z,51.33
2018-12-15T01:48:04.381Z,52.13
2018-12-15T01:50:32.778Z,51.50
2018-12-15T01:53:02.094Z,52.87
2018-12-15T01:55:31.632Z,53.20
2018-12-15T01:58:00.024Z,58.30
2018-12-15T02:00:28.418Z,53.77
2018-12-15T02:02:56.823Z,56.70
2018-12-15T02:05:25.556Z,54.30
2018-12-15T02:07:54.551Z,54.77
2018-12-15T02:10:24.088Z,53.57
2018-12-15T02:12:52.700Z,53.93
2018-12-15T02:15:21.082Z,53.07
2018-12-15T02:17:52.453Z,54.07
2018-12-15T02:20:21.272Z,53.33
2018-12-15T02:22:51.895Z,57.33
2018-12-15T02:25:20.363Z,58.63
2018-12-15T02:29:18.283Z,52.47
2018-12-15T02:31:46.647Z,53.13
2018-12-15T02:34:15.051Z,57.43
2018-12-15T02:36:43.413Z,56.50
2018-12-15T02:39:11.829Z,54.90
2018-12-15T02:41:47.060Z,57.30
2018-12-15T02:44:11.456Z,57.07
2018-12-15T02:46:42.077Z,56.50
2018-12-15T02:49:11.645Z,56.50
2018-12-15T02:51:40.257Z,54.60
2018-12-15T02:54:09.580Z,55.43
2018-12-15T02:56:41.306Z,57.40
2018-12-15T02:59:10.928Z,54.97
2018-12-15T03:01:40.179Z,57.13
2018-12-15T03:04:09.658Z,56.47
2018-12-15T03:06:38.370Z,55.03
2018-12-15T03:09:07.405Z,57.03
2018-12-15T03:11:35.830Z,61.40
2018-12-15T03:14:05.988Z,58.20
2018-12-15T03:16:35.975Z,56.67
2018-12-15T03:19:12.105Z,50.17
2018-12-15T03:21:40.523Z,53.23
2018-12-15T03:24:08.934Z,56.23
2018-12-15T03:26:37.613Z,56.83
2018-12-15T03:29:05.997Z,55.20
2018-12-15T03:31:34.545Z,54.80
2018-12-15T03:34:04.686Z,56.93
2018-12-15T03:36:33.065Z,60.23
2018-12-15T03:39:02.610Z,48.30
2018-12-15T03:41:32.087Z,52.17
2018-12-15T03:44:00.498Z,51.87
2018-12-15T03:46:28.853Z,54.03
2018-12-15T03:48:59.381Z,50.73
2018-12-15T03:51:27.743Z,53.30
2018-12-15T03:53:56.806Z,58.73
2018-12-15T03:56:25.224Z,55.80
2018-12-15T03:58:53.881Z,55.17
2018-12-15T04:01:22.239Z,53.50
2018-12-15T04:03:50.917Z,55.30
2018-12-15T04:06:19.336Z,53.40
2018-12-15T04:08:47.705Z,51.47
2018-12-15T04:11:17.085Z,54.03
2018-12-15T04:13:46.543Z,54.50
2018-12-15T04:16:14.940Z,51.80
2018-12-15T04:20:12.783Z,53.13
2018-12-15T04:22:41.173Z,52.03
2018-12-15T04:25:09.567Z,51.03
2018-12-15T04:27:37.930Z,52.90
2018-12-15T04:30:08.382Z,52.67
2018-12-15T04:32:37.087Z,50.43
2018-12-15T04:35:08.658Z,50.87
2018-12-15T04:37:40.260Z,48.20
2018-12-15T04:40:09.939Z,54.20
2018-12-15T04:42:39.695Z,54.90
2018-12-15T04:45:09.836Z,48.33
2018-12-15T04:47:39.445Z,47.93
2018-12-15T04:50:08.795Z,51.40
2018-12-15T04:52:37.202Z,50.60
2018-12-15T04:55:06.294Z,50.47
2018-12-15T04:57:36.479Z,51.83
2018-12-15T05:00:08.143Z,50.10
2018-12-15T05:02:43.599Z,50.63
2018-12-15T05:05:08.646Z,48.00
2018-12-15T05:07:37.490Z,48.40
2018-12-15T05:10:06.869Z,47.07
2018-12-15T05:12:35.262Z,52.40
2018-12-15T05:15:05.754Z,50.57
2018-12-15T05:17:34.909Z,50.53
2018-12-15T05:20:03.993Z,51.77
2018-12-15T05:22:33.320Z,52.30
2018-12-15T05:25:04.109Z,45.50
2018-12-15T05:27:32.947Z,47.23
2018-12-15T05:30:02.229Z,50.83
2018-12-15T05:32:30.601Z,51.53
2018-12-15T05:35:01.111Z,47.27
2018-12-15T05:37:30.175Z,48.60
2018-12-15T05:39:58.583Z,46.30
2018-12-15T05:42:28.171Z,44.83
2018-12-15T05:47:42.414Z,46.80
2018-12-15T05:50:11.085Z,44.43
2018-12-15T05:52:39.451Z,45.43
2018-12-15T05:55:08.267Z,46.60
2018-12-15T05:57:38.291Z,45.67
2018-12-15T06:00:08.587Z,47.07
2018-12-15T06:02:37.415Z,45.67
2018-12-15T06:05:06.672Z,43.60
2018-12-15T06:07:35.441Z,45.33
2018-12-15T06:10:05.474Z,44.10
2018-12-15T06:12:35.142Z,39.97
2018-12-15T06:15:05.367Z,42.60
2018-12-15T06:17:33.990Z,42.97
2018-12-15T06:20:02.824Z,42.23
2018-12-15T06:22:31.638Z,40.10
2018-12-15T06:25:00.054Z,34.43
2018-12-15T06:27:29.290Z,35.27
2018-12-15T06:29:58.243Z,35.87
2018-12-15T06:32:26.653Z,37.03
2018-12-15T06:34:55.589Z,34.87
2018-12-15T06:37:25.001Z,32.37
2018-12-15T06:39:53.920Z,29.37
2018-12-15T06:42:22.647Z,29.17
2018-12-15T06:44:51.027Z,30.60
2018-12-15T06:47:19.437Z,36.43
2018-12-15T06:49:48.827Z,31.70
2018-12-15T06:52:17.257Z,33.57
2018-12-15T06:54:45.646Z,37.10
2018-12-15T06:57:14.067Z,35.97
2018-12-15T06:59:42.492Z,37.27
2018-12-15T07:02:11.743Z,36.97
2018-12-15T07:04:41.554Z,34.23
2018-12-15T07:07:09.910Z,36.57
2018-12-15T07:09:39.292Z,32.40
2018-12-15T07:12:07.915Z,37.63
2018-12-15T07:14:36.687Z,33.63
2018-12-15T07:17:05.480Z,34.80
2018-12-15T07:19:36.025Z,33.87
2018-12-15T07:22:05.013Z,33.73
2018-12-15T07:24:33.410Z,29.73
2018-12-15T07:27:01.805Z,29.33
2018-12-15T07:29:30.179Z,34.00
2018-12-15T07:32:00.873Z,32.00
2018-12-15T07:34:29.294Z,32.70
2018-12-15T07:36:59.101Z,30.83
2018-12-15T07:39:33.247Z,28.03
2018-12-15T07:42:01.627Z,29.60
2018-12-15T07:44:32.219Z,30.07
2018-12-15T07:47:01.286Z,31.60
2018-12-15T07:49:31.621Z,34.13
2018-12-15T07:52:02.841Z,32.33
2018-12-15T07:54:31.471Z,31.30
2018-12-15T07:57:00.391Z,34.93
2018-12-15T07:59:28.802Z,33.77
2018-12-15T08:01:57.763Z,34.17
2018-12-15T08:04:26.162Z,34.97
2018-12-15T08:06:55.892Z,34.23
2018-12-15T08:09:24.330Z,35.30
2018-12-15T08:11:59.206Z,35.23
2018-12-15T08:14:28.672Z,36.43
2018-12-15T08:16:57.075Z,32.77
2018-12-15T08:19:25.513Z,34.87
2018-12-15T08:21:53.898Z,35.77
2018-12-15T08:24:22.885Z,34.63
2018-12-15T08:26:51.256Z,34.67
2018-12-15T08:29:20.538Z,34.73
2018-12-15T08:31:50.310Z,34.13
2018-12-15T08:34:19.082Z,37.40
2018-12-15T08:36:47.851Z,36.23
2018-12-15T08:39:17.143Z,36.07
2018-12-15T08:41:47.150Z,34.40
2018-12-15T08:44:15.555Z,31.07
2018-12-15T08:46:44.557Z,32.97
2018-12-15T08:49:13.333Z,34.77
2018-12-15T08:51:42.515Z,34.40
2018-12-15T08:54:11.507Z,27.57
2018-12-15T08:56:40.286Z,27.00
2018-12-15T08:59:08.655Z,35.27
2018-12-15T09:01:38.131Z,32.47
2018-12-15T09:04:06.961Z,34.20
2018-12-15T09:06:36.748Z,32.77
2018-12-15T09:09:06.942Z,30.43
2018-12-15T09:11:35.288Z,34.03
2018-12-15T09:14:04.354Z,36.93
2018-12-15T09:16:33.164Z,35.40
2018-12-15T09:19:03.570Z,37.37
2018-12-15T09:21:31.990Z,34.60
2018-12-15T09:24:01.154Z,36.60
2018-12-15T09:26:29.512Z,37.73
2018-12-15T09:29:01.734Z,34.87
2018-12-15T09:31:30.151Z,33.37
2018-12-15T09:33:59.159Z,34.43
2018-12-15T09:36:27.547Z,32.80
2018-12-15T09:38:56.709Z,28.37
2018-12-15T09:41:25.083Z,30.17
2018-12-15T09:43:53.456Z,30.37
2018-12-15T09:46:21.850Z,30.93
2018-12-15T09:48:50.243Z,33.23
2018-12-15T09:51:19.071Z,33.13
2018-12-15T09:53:47.437Z,33.00
2018-12-15T09:56:16.328Z,32.33
2018-12-15T09:58:45.146Z,36.60
2018-12-15T10:01:13.804Z,37.90
2018-12-15T10:03:43.158Z,34.53
2018-12-15T10:06:13.640Z,33.50
2018-12-15T10:08:42.259Z,36.00
2018-12-15T10:11:10.719Z,34.20
2018-12-15T10:13:39.122Z,33.70
2018-12-15T10:16:07.508Z,32.40
2018-12-15T10:18:35.880Z,36.17
2018-12-15T10:21:04.990Z,32.90
2018-12-15T10:23:33.383Z,36.50
2018-12-15T10:26:02.015Z,35.00
2018-12-15T10:28:30.409Z,37.60
2018-12-15T10:31:05.637Z,36.10
2018-12-15T10:33:34.056Z,35.93
2018-12-15T10:36:02.444Z,33.63
2018-12-15T10:38:30.830Z,33.23
2018-12-15T10:41:00.171Z,36.27
2018-12-15T10:43:29.468Z,36.43
2018-12-15T10:45:58.369Z,35.67
2018-12-15T10:48:26.745Z,34.53
2018-12-15T10:50:55.121Z,32.60
2018-12-15T10:53:23.789Z,35.27
2018-12-15T10:55:54.847Z,35.67
2018-12-15T10:58:24.976Z,32.27
2018-12-15T11:00:56.917Z,33.40
2018-12-15T11:03:25.275Z,36.87
2018-12-15T11:05:55.515Z,33.93
2018-12-15T11:08:23.939Z,33.50
2018-12-15T11:10:52.343Z,35.67
2018-12-15T11:13:21.543Z,36.17
2018-12-15T11:15:49.967Z,34.13
2018-12-15T11:18:18.326Z,33.00
2018-12-15T11:20:47.485Z,34.50
2018-12-15T11:23:15.996Z,37.50
2018-12-15T11:25:44.364Z,33.23
2018-12-15T11:28:13.306Z,34.23
2018-12-15T11:30:41.745Z,32.33
2018-12-15T11:33:10.381Z,29.70
2018-12-15T11:35:38.756Z,31.70
2018-12-15T11:38:07.155Z,33.97
2018-12-15T11:40:35.520Z,36.10
2018-12-15T11:43:04.741Z,33.47
2018-12-15T11:45:33.126Z,32.07
2018-12-15T11:48:03.476Z,34.37
2018-12-15T11:50:31.831Z,32.17
2018-12-15T11:53:00.500Z,33.33
2018-12-15T11:55:28.906Z,33.13
2018-12-15T11:57:58.415Z,36.37
2018-12-15T12:00:27.936Z,35.03
2018-12-15T12:02:57.510Z,36.37
2018-12-15T12:05:26.752Z,36.07
2018-12-15T12:07:55.502Z,34.57
2018-12-15T12:10:23.882Z,34.50
2018-12-15T12:12:52.229Z,35.67
2018-12-15T12:15:20.584Z,35.10
2018-12-15T12:17:48.946Z,33.50
2018-12-15T12:20:19.681Z,36.43
2018-12-15T12:22:49.494Z,34.20
2018-12-15T12:25:18.819Z,34.53
2018-12-15T12:27:47.419Z,39.33
2018-12-15T12:30:15.829Z,35.80
2018-12-15T12:32:44.189Z,36.90
2018-12-15T12:35:13.035Z,32.43
2018-12-15T12:37:41.425Z,36.53
2018-12-15T12:40:11.037Z,34.90
2018-12-15T12:42:40.149Z,38.20
2018-12-15T12:45:09.019Z,34.60
2018-12-15T12:47:37.378Z,36.00
2018-12-15T12:50:07.509Z,37.97
2018-12-15T12:52:40.350Z,37.07
2018-12-15T12:55:09.827Z,33.67
2018-12-15T12:57:39.154Z,32.47
2018-12-15T13:00:08.377Z,34.47
2018-12-15T13:02:37.307Z,32.17
2018-12-15T13:05:08.179Z,36.30
2018-12-15T13:07:37.154Z,32.90
2018-12-15T13:10:07.778Z,35.93
2018-12-15T13:12:37.206Z,34.53
2018-12-15T13:15:10.091Z,34.20
2018-12-15T13:17:39.226Z,34.23
2018-12-15T13:20:08.408Z,34.50
2018-12-15T13:22:36.762Z,33.07
2018-12-15T13:25:08.594Z,29.47
2018-12-15T13:27:37.788Z,35.27
2018-12-15T13:30:08.777Z,34.87
2018-12-15T13:32:38.228Z,36.27
2018-12-15T13:35:07.536Z,33.73
2018-12-15T13:37:36.704Z,34.17
2018-12-15T13:40:05.853Z,34.97
2018-12-15T13:42:34.238Z,35.70
2018-12-15T13:45:02.681Z,34.53
2018-12-15T13:47:31.093Z,35.93
2018-12-15T13:50:09.955Z,33.87
2018-12-15T13:52:35.331Z,34.90
2018-12-15T13:55:05.493Z,34.57
2018-12-15T13:57:33.936Z,35.87
2018-12-15T14:00:03.667Z,33.77
2018-12-15T14:02:32.033Z,35.60
2018-12-15T14:05:02.333Z,35.70
2018-12-15T14:07:30.739Z,33.80
2018-12-15T14:10:00.423Z,36.30
2018-12-15T14:12:28.804Z,37.37
2018-12-15T14:14:59.588Z,33.00
2018-12-15T14:17:29.259Z,33.47
2018-12-15T14:19:59.209Z,34.87
2018-12-15T14:22:28.951Z,37.87
2018-12-15T14:25:00.102Z,36.10
2018-12-15T14:27:32.610Z,34.37
2018-12-15T14:30:02.932Z,37.53
2018-12-15T14:32:32.895Z,35.60
2018-12-15T14:35:02.734Z,35.93
2018-12-15T14:39:00.570Z,37.50
2018-12-15T14:41:28.953Z,36.33
2018-12-15T14:43:58.241Z,37.40
2018-12-15T14:46:26.614Z,39.10
2018-12-15T14:48:56.977Z,39.17
2018-12-15T14:51:25.359Z,39.53
2018-12-15T14:53:53.739Z,43.10
2018-12-15T14:56:22.549Z,39.97
2018-12-15T14:58:50.921Z,39.50
2018-12-15T15:01:19.729Z,40.80
2018-12-15T15:03:48.084Z,41.13
2018-12-15T15:06:16.505Z,39.27
2018-12-15T15:08:44.851Z,40.80
2018-12-15T15:11:13.500Z,40.70
2018-12-15T15:13:42.240Z,40.93
2018-12-15T15:16:11.056Z,45.97
2018-12-15T15:18:39.488Z,41.20
2018-12-15T15:21:07.850Z,39.60
2018-12-15T15:23:36.278Z,43.73
2018-12-15T15:26:04.680Z,43.07
2018-12-15T15:28:33.042Z,43.70
2018-12-15T15:31:01.400Z,51.67
2018-12-15T15:33:30.304Z,44.93
2018-12-15T15:35:58.709Z,44.50
2018-12-15T15:38:27.070Z,45.93
2018-12-15T15:40:56.122Z,44.10
2018-12-15T15:43:24.472Z,48.27
2018-12-15T15:45:52.826Z,43.70
2018-12-15T15:48:21.202Z,46.63
2018-12-15T15:50:49.558Z,46.57
2018-12-15T15:53:17.915Z,45.10
2018-12-15T15:55:46.864Z,49.07
2018-12-15T15:58:15.516Z,46.03
2018-12-15T16:00:43.879Z,48.87
2018-12-15T16:03:12.281Z,46.37
2018-12-15T16:05:40.629Z,48.90
2018-12-15T16:08:09.048Z,46.27
2018-12-15T16:10:37.581Z,46.80
2018-12-15T16:13:05.952Z,48.50
2018-12-15T16:15:34.412Z,46.57
2018-12-15T16:18:04.051Z,48.97
2018-12-15T16:20:32.434Z,48.67
2018-12-15T16:23:00.820Z,47.37
2018-12-15T16:25:29.685Z,46.83
2018-12-15T16:27:58.682Z,48.47
2018-12-15T16:30:27.484Z,48.47
2018-12-15T16:32:56.251Z,49.40
2018-12-15T16:35:25.547Z,47.80
2018-12-15T16:37:54.320Z,50.23
2018-12-15T16:40:32.012Z,49.63
2018-12-15T16:43:00.696Z,49.83
2018-12-15T16:45:30.066Z,49.90
2018-12-15T16:48:02.306Z,51.33
2018-12-15T16:50:31.946Z,51.43
2018-12-15T16:53:01.619Z,49.23
2018-12-15T16:55:36.626Z,49.63
2018-12-15T16:58:05.986Z,50.17
2018-12-15T17:00:35.684Z,48.10
2018-12-15T17:03:04.065Z,49.23
2018-12-15T17:09:07.815Z,53.27
2018-12-15T17:11:36.735Z,48.03
2018-12-15T17:14:06.471Z,48.97
2018-12-15T17:16:35.629Z,45.33
2018-12-15T17:19:04.332Z,43.83
2018-12-15T17:21:32.875Z,47.07
2018-12-15T17:24:02.127Z,47.63
2018-12-15T17:26:30.559Z,48.93
2018-12-15T17:28:59.215Z,49.03
2018-12-15T17:31:27.604Z,47.53
2018-12-15T17:33:57.312Z,46.17
2018-12-15T17:36:26.556Z,51.13
2018-12-15T17:38:55.023Z,47.67
2018-12-15T17:41:23.841Z,46.83
2018-12-15T17:43:52.204Z,46.50
2018-12-15T17:46:20.627Z,45.23
2018-12-15T17:48:48.990Z,48.97
2018-12-15T17:51:17.976Z,41.90
2018-12-15T17:53:46.348Z,43.87
2018-12-15T17:56:17.756Z,45.13
2018-12-15T17:58:46.852Z,44.77
2018-12-15T18:01:15.206Z,43.53
2018-12-15T18:03:43.590Z,43.50
2018-12-15T18:06:11.956Z,41.33
2018-12-15T18:08:41.168Z,41.40
2018-12-15T18:11:09.624Z,38.47
2018-12-15T18:13:38.010Z,42.43
2018-12-15T18:16:07.442Z,41.90
2018-12-15T18:18:35.798Z,39.80
2018-12-15T18:21:09.707Z,38.00
2018-12-15T18:23:36.193Z,43.07
2018-12-15T18:26:05.564Z,42.37
2018-12-15T18:28:34.218Z,41.47
2018-12-15T18:31:04.515Z,37.57
2018-12-15T18:33:37.038Z,40.73
2018-12-15T18:36:03.529Z,40.60
2018-12-15T18:38:32.135Z,40.53
2018-12-15T18:41:00.512Z,40.90
2018-12-15T18:43:28.851Z,39.57
2018-12-15T18:45:57.271Z,40.73
2018-12-15T18:48:25.713Z,38.40
2018-12-15T18:50:54.310Z,41.70
2018-12-15T18:53:22.679Z,39.77
2018-12-15T18:55:51.618Z,39.07
2018-12-15T18:58:20.212Z,41.83
2018-12-15T19:00:48.551Z,39.37
2018-12-15T19:03:18.239Z,38.63
2018-12-15T19:05:46.594Z,39.97
2018-12-15T19:08:15.985Z,36.47
2018-12-15T19:10:45.886Z,37.03
2018-12-15T19:13:15.917Z,37.93
2018-12-15T19:15:44.291Z,36.10
2018-12-15T19:18:12.682Z,38.90
2018-12-15T19:20:41.712Z,34.67
2018-12-15T19:23:10.676Z,39.73
2018-12-15T19:25:39.092Z,37.50
2018-12-15T19:28:07.458Z,41.77
2018-12-15T19:30:35.860Z,36.07
2018-12-15T19:33:05.087Z,34.57
2018-12-15T19:35:33.450Z,34.93
2018-12-15T19:38:02.256Z,34.80
2018-12-15T19:40:30.630Z,35.20
2018-12-15T19:42:59.607Z,39.80
2018-12-15T19:45:28.330Z,38.80
2018-12-15T19:47:57.012Z,37.53
2018-12-15T19:50:27.281Z,36.97
2018-12-15T19:52:56.781Z,35.27
2018-12-15T19:55:25.203Z,37.13
2018-12-15T19:57:53.583Z,35.40
2018-12-15T20:00:21.965Z,39.67
2018-12-15T20:02:51.225Z,40.47
2018-12-15T20:05:19.969Z,35.73
2018-12-15T20:07:48.973Z,38.37
2018-12-15T20:10:17.323Z,36.80
2018-12-15T20:12:45.687Z,38.83
2018-12-15T20:15:14.129Z,39.57
2018-12-15T20:17:45.177Z,39.63
2018-12-15T20:20:16.214Z,35.50
2018-12-15T20:22:54.349Z,37.43
2018-12-15T20:25:38.787Z,42.67
2018-12-15T20:28:07.118Z,36.60
2018-12-15T20:30:36.114Z,35.57
2018-12-15T20:33:04.839Z,37.90
2018-12-15T20:35:33.245Z,39.73
2018-12-15T20:38:01.671Z,38.03
2018-12-15T20:40:30.064Z,39.97
2018-12-15T20:42:59.371Z,40.87
2018-12-15T20:45:27.745Z,41.27
2018-12-15T20:47:56.406Z,43.07
2018-12-15T20:50:26.410Z,38.80
2018-12-15T20:52:55.317Z,40.73
2018-12-15T20:55:23.686Z,37.67
2018-12-15T20:57:52.048Z,39.67
2018-12-15T21:00:20.427Z,40.20
2018-12-15T21:02:48.802Z,40.77
2018-12-15T21:05:17.166Z,41.07
2018-12-15T21:07:45.847Z,44.00
2018-12-15T21:10:14.211Z,41.63
2018-12-15T21:12:42.569Z,41.87
2018-12-15T21:15:17.720Z,44.73
2018-12-15T21:17:46.133Z,50.30
2018-12-15T21:20:15.500Z,48.83
2018-12-15T21:22:44.486Z,48.03
2018-12-15T21:25:13.541Z,48.43
2018-12-15T21:27:41.962Z,51.03
2018-12-15T21:30:11.770Z,46.20
2018-12-15T21:32:40.141Z,47.43
2018-12-15T21:35:08.833Z,48.67
2018-12-15T21:37:37.215Z,49.93
2018-12-15T21:40:07.097Z,51.37
2018-12-15T21:42:35.474Z,54.53
2018-12-15T21:45:05.347Z,51.80
2018-12-15T21:47:33.698Z,49.97
2018-12-15T21:50:02.118Z,51.23
2018-12-15T21:52:30.686Z,54.40
2018-12-15T21:54:59.027Z,54.10
2018-12-15T21:57:27.393Z,53.23
2018-12-15T21:59:55.770Z,58.70
2018-12-15T22:02:24.124Z,56.63
2018-12-15T22:04:52.473Z,57.90
2018-12-15T22:07:20.863Z,60.37
2018-12-15T22:09:49.639Z,58.63
2018-12-15T22:12:18.327Z,62.47
2018-12-15T22:14:46.689Z,62.07
2018-12-15T22:17:15.271Z,59.97
2018-12-15T22:19:43.741Z,63.77
2018-12-15T22:22:12.214Z,63.07
2018-12-15T22:24:41.205Z,62.47
2018-12-15T22:27:09.571Z,64.63
2018-12-15T22:29:37.987Z,67.97
2018-12-15T22:32:06.785Z,63.87
2018-12-15T22:34:35.199Z,65.90
2018-12-15T22:37:04.253Z,68.43
2018-12-15T22:39:33.219Z,69.30
2018-12-15T22:42:01.617Z,70.47
2018-12-15T22:44:30.011Z,68.97
2018-12-15T22:46:58.391Z,68.93
2018-12-15T22:49:26.771Z,62.73
2018-12-15T22:51:55.205Z,75.23
2018-12-15T22:54:23.579Z,71.70
2018-12-15T22:56:51.979Z,67.10
2018-12-15T22:59:20.349Z,68.00
2018-12-15T23:01:48.732Z,74.23
2018-12-15T23:04:17.118Z,71.00
2018-12-15T23:08:14.992Z,78.50
2018-12-15T23:10:43.360Z,83.63
2018-12-15T23:13:11.805Z,81.27
2018-12-15T23:15:40.657Z,85.80
2018-12-15T23:18:08.996Z,86.50
2018-12-15T23:20:37.573Z,74.13
2018-12-15T23:23:05.983Z,84.73
2018-12-15T23:25:34.669Z,78.67
2018-12-15T23:28:03.015Z,82.63
2018-12-15T23:30:31.581Z,79.57
2018-12-15T23:33:01.509Z,85.47
2018-12-15T23:35:30.097Z,76.80
2018-12-15T23:37:59.168Z,55.83
2018-12-15T23:40:27.984Z,60.97
2018-12-15T23:42:56.567Z,81.20
2018-12-15T23:45:24.927Z,89.43
2018-12-15T23:47:53.279Z,94.37
2018-12-15T23:50:21.631Z,95.53
2018-12-15T23:52:50.002Z,105.23
2018-12-15T23:55:18.788Z,98.60
2018-12-15T23:57:47.162Z,100.77
